Página principal
METAR-TAF:

METAR-TAF

Aeroportos :

N'Djamena, Chade

Aeroporto Internacional de N'Djamena

latitude: 12-08N, longitude: 015-02E, altura: 295 m

Observação actual do tempo

O boletim foi feito há 31 minutos, às 13:00 UTC
Vento 5 kt de oes-sudoeste, variando entre sudeste e noroeste
Temperatura 41°C
Humidade 9%
Pressão 1003 hPa
Visibilidade 10 km ou mais
sem nuvens abaixo de 1500 metros e sem cumulonimbus

METAR: FTTJ 211300Z 24005KT 140V310 CAVOK 41/02 Q1003 NOSIG

Hora: 14:31 (13:31 UTC)

Previsão

O boletim foi feito há 26 horas e 31 minutos, às 11:00 UTC
Previsão válida de 20 às 12 UTC a 21 às 18 UTC
Vento 7 kt de nor-nordeste
Visibilidade 10 km ou mais
sem nuvens abaixo de 1500 metros e sem cumulonimbus
Temporariamente
de 20 às 16 UTC a 20 às 19 UTC
Visibilidade: 4000 m
bruma

TAF: FTTJ 201100Z 2012/2118 02007KT CAVOK TEMPO 2016/2019 4000 HZ

Observações e previsões do tempo de mais de 4000 aeroportos (mensagens METAR e TAF).

As estações disponíveis são os pontos amarelos e vermelhos sobre o mapa.

Mova o rato sobre o mapa para ver o nome da estação.

Depois clique no ponto para visualizar as observações e previsões meteorológicas.

Para alterar o mapa : clique nos botões verdes com uma cruz preta para aumentar o zoom; no botão verde com uma pitada de zoom; ou nas setas verdes para mapas adjacentes.


METAR-TAF: